Time;durP1;ratioP1;P1;durP2;ratioP2;P2;SDS_P1;SDS_P2;PMS_P1;PMS_P2;Temp;Humidity;BMP_temperature;BMP_pressure;BME280_temperature;BME280_humidity;BME280_pressure;Samples;Min_cycle;Max_cycle;Signal;HPM_P1;HPM_P2
2022/03/22 00:00:34;;;;;;;12.10;10.77;;;;;;;7.68;50.99;96740.88;4360067;32;20312;-62
2022/03/22 00:03:00;;;;;;;12.80;11.50;;;;;;;7.61;51.09;96737.59;4364198;32;20292;-62
2022/03/22 00:05:25;;;;;;;14.57;11.23;;;;;;;7.60;51.28;96742.06;4365695;32;20185;-61
2022/03/22 00:07:51;;;;;;;12.17;10.60;;;;;;;7.63;51.54;96740.78;4376478;32;20204;-62
2022/03/22 00:10:17;;;;;;;11.77;10.57;;;;;;;7.55;52.06;96732.22;4372453;32;20268;-62
2022/03/22 00:12:43;;;;;;;13.23;10.67;;;;;;;7.44;52.42;96729.66;4362487;32;20333;-62
2022/03/22 00:15:10;;;;;;;12.00;10.43;;;;;;;7.48;52.14;96726.25;4361767;32;20185;-61
2022/03/22 00:17:36;;;;;;;13.17;10.27;;;;;;;7.45;52.11;96736.53;4374835;32;20306;-61
2022/03/22 00:20:03;;;;;;;14.50;10.00;;;;;;;7.54;51.48;96727.16;4362171;32;20338;-62
2022/03/22 00:22:29;;;;;;;13.93;10.33;;;;;;;7.51;51.49;96730.28;4373741;32;20291;-62
2022/03/22 00:24:54;;;;;;;11.40;10.30;;;;;;;7.42;51.63;96729.88;4364842;32;20284;-62
2022/03/22 00:27:20;;;;;;;13.03;10.60;;;;;;;7.38;51.83;96723.47;4377376;32;20188;-61
2022/03/22 00:29:45;;;;;;;12.53;10.87;;;;;;;7.59;51.07;96721.97;4362619;32;20177;-62
2022/03/22 00:32:11;;;;;;;15.43;10.53;;;;;;;7.27;52.53;96726.19;4360999;32;20240;-62
2022/03/22 00:34:44;;;;;;;10.30;9.20;;;;;;;7.42;51.65;96724.59;4359087;32;20228;-62
2022/03/22 00:37:18;;;;;;;10.97;9.73;;;;;;;7.49;51.43;96729.72;4358786;32;20199;-61
2022/03/22 00:39:45;;;;;;;12.73;9.93;;;;;;;7.26;51.95;96735.94;4358630;32;20308;-62
2022/03/22 00:42:11;;;;;;;10.57;9.50;;;;;;;7.40;51.67;96734.59;4372241;32;20288;-62
2022/03/22 00:44:38;;;;;;;11.60;9.53;;;;;;;7.36;51.41;96738.75;4362200;32;20270;-62
2022/03/22 00:47:06;;;;;;;9.63;8.70;;;;;;;7.27;51.71;96737.53;4347430;32;20353;-61
2022/03/22 00:49:33;;;;;;;10.47;9.37;;;;;;;7.37;50.81;96735.06;4361414;32;20289;-61
2022/03/22 00:52:01;;;;;;;9.97;8.93;;;;;;;7.24;51.37;96732.72;4363481;32;20351;-62
2022/03/22 00:54:26;;;;;;;12.83;9.50;;;;;;;7.33;51.07;96733.13;4364331;32;20277;-62
2022/03/22 00:56:54;;;;;;;10.43;9.50;;;;;;;7.08;51.54;96729.00;4372016;32;20348;-62
2022/03/22 01:02:03;;;;;;;10.40;9.30;;;;;;;7.01;52.01;96733.63;4360570;32;20346;-62
2022/03/22 01:04:28;;;;;;;13.13;9.77;;;;;;;6.94;52.60;96732.97;4365197;32;20277;-62
2022/03/22 01:06:53;;;;;;;11.17;9.97;;;;;;;6.60;54.06;96737.31;4376413;32;20201;-62
2022/03/22 01:09:19;;;;;;;12.30;9.70;;;;;;;6.20;55.17;96738.06;4384789;32;20203;-62
2022/03/22 01:11:44;;;;;;;12.30;10.47;;;;;;;6.26;55.56;96736.31;4379232;32;20184;-62
2022/03/22 01:14:09;;;;;;;11.80;10.43;;;;;;;6.11;55.90;96728.06;4362610;32;20184;-62
2022/03/22 01:16:35;;;;;;;11.30;10.17;;;;;;;6.24;55.54;96724.41;4362851;32;20199;-62
2022/03/22 01:19:00;;;;;;;12.53;10.27;;;;;;;5.90;56.56;96736.53;4376762;32;20199;-62
2022/03/22 01:21:25;;;;;;;12.83;9.77;;;;;;;5.98;56.36;96739.66;4388580;32;20184;-62
2022/03/22 01:23:52;;;;;;;12.30;10.30;;;;;;;5.95;56.80;96726.13;4363646;32;20256;-62
2022/03/22 01:26:19;;;;;;;12.67;9.53;;;;;;;5.90;56.99;96726.81;4362310;32;20189;-62
2022/03/22 01:28:45;;;;;;;11.13;10.00;;;;;;;5.80;56.73;96732.63;4375608;32;20295;-62
2022/03/22 01:31:10;;;;;;;10.67;9.47;;;;;;;5.88;56.64;96723.56;4360968;32;20360;-62
2022/03/22 01:33:36;;;;;;;10.50;9.40;;;;;;;5.82;56.33;96724.47;4359856;32;20185;-62
2022/03/22 01:36:01;;;;;;;10.03;9.10;;;;;;;5.86;55.91;96723.00;4376771;32;20263;-62
2022/03/22 01:38:26;;;;;;;12.13;10.37;;;;;;;5.63;56.59;96728.25;4383712;32;20185;-62
2022/03/22 01:40:52;;;;;;;9.30;8.40;;;;;;;5.39;56.95;96720.31;4355081;32;20228;-62
2022/03/22 01:43:17;;;;;;;10.43;9.43;;;;;;;5.62;56.67;96719.53;4357438;32;20203;-61
2022/03/22 01:45:48;;;;;;;10.97;9.17;;;;;;;5.66;56.43;96722.53;4375936;32;20227;-62
2022/03/22 01:48:14;;;;;;;10.50;9.40;;;;;;;5.60;56.48;96723.47;4375831;32;20270;-62
2022/03/22 01:50:41;;;;;;;10.43;9.40;;;;;;;5.55;56.62;96723.31;4362944;32;20288;-62
2022/03/22 01:53:09;;;;;;;9.93;8.87;;;;;;;5.61;56.45;96715.31;4387422;32;20276;-62
2022/03/22 01:55:34;;;;;;;10.33;8.90;;;;;;;5.72;56.05;96708.47;4374280;32;20284;-62
2022/03/22 01:57:59;;;;;;;9.83;8.83;;;;;;;5.76;55.61;96714.88;4362493;32;20345;-61
2022/03/22 02:00:25;;;;;;;9.77;8.77;;;;;;;5.80;55.59;96714.19;4376667;32;20215;-62
2022/03/22 02:05:56;;;;;;;10.77;9.03;;;;;;;5.59;55.81;96711.31;4375162;32;20295;-62
2022/03/22 02:08:30;;;;;;;9.47;8.47;;;;;;;5.69;55.23;96704.44;4385497;32;20321;-61
2022/03/22 02:10:59;;;;;;;9.40;8.37;;;;;;;5.77;54.55;96712.03;4376376;32;20292;-62
2022/03/22 02:13:25;;;;;;;9.73;8.30;;;;;;;5.67;54.89;96706.50;4379402;32;20280;-61
2022/03/22 02:15:57;;;;;;;8.53;7.67;;;;;;;5.45;55.06;96706.25;4374481;32;20303;-62
2022/03/22 02:18:24;;;;;;;9.87;8.87;;;;;;;5.44;55.20;96702.00;4384034;32;20197;-61
2022/03/22 02:20:49;;;;;;;9.10;8.20;;;;;;;5.52;54.96;96706.16;4366324;32;20371;-62
2022/03/22 02:23:33;;;;;;;10.70;8.37;;;;;;;5.56;55.10;96688.09;4368658;32;20346;-62
2022/03/22 02:25:58;;;;;;;9.50;8.50;;;;;;;5.46;55.14;96697.31;4368136;32;20199;-61
2022/03/22 02:28:23;;;;;;;9.53;8.63;;;;;;;5.66;54.74;96683.03;4379244;32;20284;-62
2022/03/22 02:30:50;;;;;;;9.50;8.20;;;;;;;5.63;54.68;96686.13;4388921;32;20255;-62
2022/03/22 02:33:15;;;;;;;11.10;8.47;;;;;;;5.56;54.92;96683.63;4374917;32;20199;-62
2022/03/22 02:35:41;;;;;;;9.00;8.10;;;;;;;5.72;54.61;96682.12;4361693;32;20288;-62
2022/03/22 02:38:07;;;;;;;10.03;8.97;;;;;;;5.61;54.78;96688.22;4359627;32;20194;-61
2022/03/22 02:40:33;;;;;;;9.67;8.00;;;;;;;5.77;54.82;96695.44;4374987;32;20248;-62
2022/03/22 02:43:00;;;;;;;9.60;8.60;;;;;;;5.48;55.55;96686.56;4387210;32;20276;-62
2022/03/22 02:45:26;;;;;;;9.67;8.60;;;;;;;5.44;55.80;96694.13;4390478;32;20199;-62
2022/03/22 02:47:52;;;;;;;9.30;8.43;;;;;;;5.46;55.47;96692.06;4374530;32;20277;-61
2022/03/22 02:50:18;;;;;;;9.77;8.80;;;;;;;5.57;55.49;96694.94;4380210;32;20185;-62
2022/03/22 02:52:45;;;;;;;9.00;8.13;;;;;;;5.56;55.83;96695.97;4371901;32;20205;-62
2022/03/22 02:55:11;;;;;;;9.30;8.30;;;;;;;5.60;55.46;96691.88;4368968;32;20185;-62
2022/03/22 02:57:37;;;;;;;9.17;8.23;;;;;;;5.64;55.30;96695.63;4367507;32;20284;-62
2022/03/22 03:00:06;;;;;;;10.93;8.10;;;;;;;5.81;54.38;96688.69;4359056;32;20268;-61
2022/03/22 03:02:32;;;;;;;8.50;7.80;;;;;;;5.85;54.13;96687.97;4373891;32;20276;-62
2022/03/22 03:04:57;;;;;;;9.73;8.87;;;;;;;5.84;54.08;96689.00;4363681;32;20450;-62
2022/03/22 03:07:23;;;;;;;8.80;7.97;;;;;;;5.74;54.50;96693.25;4361330;32;20200;-62
2022/03/22 03:09:48;;;;;;;9.33;8.53;;;;;;;5.53;55.28;96689.34;4361545;32;20317;-61
2022/03/22 03:12:14;;;;;;;9.73;8.37;;;;;;;5.71;54.82;96693.69;4362228;32;20181;-62
2022/03/22 03:14:39;;;;;;;9.67;8.23;;;;;;;5.71;54.46;96696.31;4383074;32;20228;-62
2022/03/22 03:17:10;;;;;;;8.80;8.07;;;;;;;5.64;54.88;96693.00;4379282;32;20204;-62
2022/03/22 03:19:36;;;;;;;8.77;7.97;;;;;;;5.59;54.97;96698.16;4382984;32;20177;-61
2022/03/22 03:22:03;;;;;;;9.97;9.00;;;;;;;5.53;55.32;96705.94;4377705;32;20271;-62
2022/03/22 03:24:28;;;;;;;9.50;8.53;;;;;;;5.46;55.78;96701.78;4382045;32;20215;-61
2022/03/22 03:26:54;;;;;;;8.50;7.80;;;;;;;5.69;55.21;96698.38;4388006;32;20276;-62
2022/03/22 03:29:19;;;;;;;9.27;8.27;;;;;;;5.50;55.76;96716.09;4372276;32;20280;-61
2022/03/22 03:31:44;;;;;;;9.80;8.80;;;;;;;5.20;56.77;96718.00;4368893;32;20263;-62
2022/03/22 03:34:10;;;;;;;10.00;8.73;;;;;;;5.44;56.07;96712.53;4386254;32;20185;-62
2022/03/22 03:36:35;;;;;;;8.47;7.67;;;;;;;5.46;55.57;96718.38;4377876;32;20180;-62
2022/03/22 03:39:03;;;;;;;11.00;8.70;;;;;;;5.63;55.42;96721.16;4376034;32;20184;-61
2022/03/22 03:47:05;;;;;;;9.37;8.40;;;;;;;5.16;57.00;96722.91;4380638;32;20310;-62
2022/03/22 03:49:48;;;;;;;9.23;8.27;;;;;;;5.13;57.36;96732.03;4384961;32;20299;-62
2022/03/22 03:52:14;;;;;;;9.47;8.57;;;;;;;5.02;57.09;96724.88;4382382;32;20277;-61
2022/03/22 03:54:40;;;;;;;10.23;8.63;;;;;;;4.97;57.13;96721.34;4384418;32;20277;-62
2022/03/22 03:57:06;;;;;;;10.17;9.17;;;;;;;4.97;57.39;96718.72;4392647;32;20302;-62
2022/03/22 03:59:33;;;;;;;9.80;8.77;;;;;;;4.90;57.79;96721.41;4387078;32;20295;-62
2022/03/22 04:01:58;;;;;;;9.93;8.97;;;;;;;4.70;58.39;96721.66;4362925;32;20355;-61
2022/03/22 04:04:24;;;;;;;11.40;9.00;;;;;;;4.74;58.82;96720.22;4386342;32;20324;-62
2022/03/22 04:06:49;;;;;;;9.37;8.13;;;;;;;4.89;58.69;96719.00;4376676;32;20235;-61
2022/03/22 04:09:15;;;;;;;9.97;9.03;;;;;;;5.01;58.32;96711.97;4377405;32;20203;-62
2022/03/22 04:11:41;;;;;;;9.97;9.07;;;;;;;5.04;57.94;96722.03;4388030;32;20252;-62
2022/03/22 04:14:06;;;;;;;10.47;9.43;;;;;;;5.04;58.00;96717.56;4376886;32;20193;-61
2022/03/22 04:16:32;;;;;;;9.27;8.53;;;;;;;4.71;59.15;96717.22;4381362;32;20310;-62
2022/03/22 04:18:57;;;;;;;9.63;8.63;;;;;;;4.63;59.55;96725.41;4374278;32;20199;-62
2022/03/22 04:21:25;;;;;;;10.90;9.67;;;;;;;4.75;59.04;96715.75;4374864;32;20222;-61
2022/03/22 04:23:51;;;;;;;9.90;8.90;;;;;;;4.88;58.58;96715.56;4378459;32;20196;-62
2022/03/22 04:26:17;;;;;;;10.10;9.13;;;;;;;4.82;58.64;96719.88;4390492;32;20287;-61
2022/03/22 04:34:10;;;;;;;10.43;9.43;;;;;;;4.96;57.70;96725.00;4365855;32;20337;-62
2022/03/22 04:36:35;;;;;;;10.43;8.17;;;;;;;4.92;57.82;96718.56;4363074;32;20355;-61
2022/03/22 04:39:00;;;;;;;10.20;9.20;;;;;;;4.80;58.23;96719.31;4376211;32;20228;-61
2022/03/22 04:41:26;;;;;;;10.13;8.80;;;;;;;4.78;58.08;96726.59;4390187;32;20195;-61
2022/03/22 04:43:51;;;;;;;9.17;8.37;;;;;;;4.92;57.78;96715.94;4390082;32;20226;-62
2022/03/22 04:46:18;;;;;;;9.40;8.50;;;;;;;4.83;58.04;96716.25;4378916;32;20212;-62
2022/03/22 04:48:47;;;;;;;10.43;8.83;;;;;;;4.72;58.49;96714.38;4376537;32;20196;-62
2022/03/22 04:56:45;;;;;;;9.27;8.47;;;;;;;4.76;58.70;96723.44;4387601;32;20352;-62
2022/03/22 04:59:11;;;;;;;9.37;8.47;;;;;;;4.73;58.46;96723.87;4376868;32;20273;-61
2022/03/22 05:01:37;;;;;;;9.30;8.50;;;;;;;4.43;59.34;96731.69;4374058;32;20291;-61
2022/03/22 05:04:02;;;;;;;9.23;8.37;;;;;;;4.50;59.59;96742.12;4367986;32;20193;-61
2022/03/22 05:06:30;;;;;;;14.97;10.03;;;;;;;4.62;59.29;96740.34;4364885;32;20200;-61
2022/03/22 05:08:55;;;;;;;10.40;8.67;;;;;;;4.62;59.38;96735.09;4384276;32;20188;-62
2022/03/22 05:11:21;;;;;;;9.33;8.33;;;;;;;4.41;59.93;96743.44;4380131;32;20385;-61
2022/03/22 05:13:47;;;;;;;10.20;8.20;;;;;;;4.33;60.19;96741.91;4375641;32;20234;-62
2022/03/22 05:16:14;;;;;;;10.87;9.43;;;;;;;4.46;59.84;96751.47;4363414;32;20292;-62
2022/03/22 05:18:40;;;;;;;9.77;8.83;;;;;;;4.45;59.99;96744.59;4362731;32;20185;-61
2022/03/22 05:21:06;;;;;;;11.20;9.50;;;;;;;4.25;60.83;96749.25;4376955;32;20292;-61
2022/03/22 05:23:33;;;;;;;11.97;9.30;;;;;;;4.43;59.60;96746.63;4374446;32;20298;-62
2022/03/22 05:25:59;;;;;;;10.23;9.17;;;;;;;4.42;59.83;96755.53;4377662;32;20180;-61
2022/03/22 05:28:24;;;;;;;10.33;9.07;;;;;;;4.40;59.68;96744.44;4387357;32;20354;-61
2022/03/22 05:30:49;;;;;;;9.43;8.53;;;;;;;4.55;59.30;96738.84;4374631;32;20177;-60
2022/03/22 05:33:15;;;;;;;9.93;8.83;;;;;;;4.56;59.26;96740.44;4362577;32;20184;-61
2022/03/22 05:35:40;;;;;;;11.17;9.13;;;;;;;4.42;59.72;96750.28;4378358;32;20192;-61
2022/03/22 05:38:05;;;;;;;9.47;8.00;;;;;;;4.41;59.94;96754.75;4376168;32;20189;-61
2022/03/22 05:40:31;;;;;;;11.20;8.47;;;;;;;4.20;60.65;96759.59;4385018;32;20188;-61
2022/03/22 05:42:57;;;;;;;9.37;8.37;;;;;;;4.53;59.85;96759.28;4379271;32;20226;-62
2022/03/22 05:45:23;;;;;;;9.13;8.23;;;;;;;4.57;59.38;96753.37;4390076;32;20198;-62
2022/03/22 05:47:50;;;;;;;10.00;9.07;;;;;;;4.41;59.76;96760.00;4363979;32;20189;-61
2022/03/22 05:50:15;;;;;;;8.87;8.03;;;;;;;4.33;60.12;96756.88;4359955;32;20316;-62
2022/03/22 05:52:47;;;;;;;10.93;9.30;;;;;;;4.25;60.23;96757.13;4366335;32;20285;-61
2022/03/22 05:55:13;;;;;;;10.33;8.87;;;;;;;4.24;59.98;96752.91;4365534;32;20253;-61
2022/03/22 05:57:39;;;;;;;11.37;9.83;;;;;;;4.16;60.21;96761.09;4376241;32;20294;-61
2022/03/22 06:00:07;;;;;;;9.17;8.23;;;;;;;4.18;60.78;96761.66;4374408;32;20332;-61
2022/03/22 06:02:37;;;;;;;10.70;8.90;;;;;;;4.25;60.44;96755.31;4375881;32;20199;-62
2022/03/22 06:05:08;;;;;;;10.97;9.03;;;;;;;4.49;60.02;96757.09;4367303;32;20349;-62
2022/03/22 06:07:34;;;;;;;11.33;8.80;;;;;;;4.50;59.52;96757.88;4376328;32;20311;-62
2022/03/22 06:09:59;;;;;;;10.47;8.07;;;;;;;4.58;59.02;96752.31;4369826;32;20311;-62
2022/03/22 06:12:26;;;;;;;11.87;9.20;;;;;;;4.74;58.63;96753.56;4373676;32;20285;-63
2022/03/22 06:15:14;;;;;;;10.33;8.73;;;;;;;4.74;58.52;96754.37;4378785;32;20181;-63
2022/03/22 06:17:37;;;;;;;9.33;8.33;;;;;;;4.70;58.69;96753.22;4375588;32;20313;-62
2022/03/22 06:20:03;;;;;;;10.27;9.03;;;;;;;4.77;58.48;96751.31;4373583;32;20281;-62
2022/03/22 06:22:28;;;;;;;10.67;9.33;;;;;;;4.66;59.15;96761.75;4377559;32;20219;-62
2022/03/22 06:24:54;;;;;;;10.23;9.23;;;;;;;4.47;59.78;96767.00;4389053;32;20255;-63
2022/03/22 06:27:19;;;;;;;12.73;9.33;;;;;;;4.57;60.03;96758.62;4361792;32;20348;-62
2022/03/22 06:29:45;;;;;;;10.23;9.23;;;;;;;4.60;60.38;96757.38;4386309;32;20275;-62
2022/03/22 06:32:11;;;;;;;11.57;9.40;;;;;;;4.76;59.88;96756.78;4379792;32;20229;-62
2022/03/22 06:34:37;;;;;;;9.90;8.90;;;;;;;4.56;60.24;96770.16;4374307;32;20272;-61
2022/03/22 06:37:03;;;;;;;11.33;9.57;;;;;;;4.34;61.32;96768.97;4371932;32;20211;-62
2022/03/22 06:39:29;;;;;;;9.40;8.57;;;;;;;4.20;62.04;96776.16;4365047;32;20181;-62
2022/03/22 06:41:54;;;;;;;10.23;9.23;;;;;;;4.33;62.02;96770.00;4357357;32;20359;-63
2022/03/22 06:44:19;;;;;;;10.73;9.23;;;;;;;4.47;61.59;96768.84;4374467;32;20252;-62
2022/03/22 06:46:45;;;;;;;10.10;9.07;;;;;;;4.72;61.02;96772.19;4376085;32;20200;-62
2022/03/22 06:49:10;;;;;;;9.70;8.70;;;;;;;4.91;59.92;96780.06;4375621;32;20188;-62
2022/03/22 06:51:35;;;;;;;9.93;8.93;;;;;;;4.94;59.77;96775.16;4375578;32;20193;-62
2022/03/22 06:54:01;;;;;;;9.90;8.90;;;;;;;5.05;59.21;96776.22;4380044;32;20199;-62
2022/03/22 06:56:26;;;;;;;11.03;9.87;;;;;;;5.10;59.17;96771.13;4369703;32;20226;-62
2022/03/22 06:58:51;;;;;;;17.33;9.77;;;;;;;5.15;58.82;96779.16;4382551;32;20198;-62
2022/03/22 07:01:17;;;;;;;10.03;8.47;;;;;;;5.28;58.65;96783.41;4363678;32;20196;-62
2022/03/22 07:03:42;;;;;;;13.30;9.23;;;;;;;5.35;58.59;96778.88;4372748;32;20222;-62
2022/03/22 07:06:07;;;;;;;10.20;9.13;;;;;;;5.44;57.97;96770.44;4362989;32;20199;-62
2022/03/22 07:08:32;;;;;;;10.20;8.20;;;;;;;5.64;57.38;96780.66;4376467;32;20298;-62
2022/03/22 07:13:41;;;;;;;9.80;8.80;;;;;;;5.67;57.10;96782.03;4365437;32;20203;-62
2022/03/22 07:16:07;;;;;;;12.97;8.73;;;;;;;5.77;56.68;96777.84;4369590;32;20312;-62
2022/03/22 07:18:32;;;;;;;10.63;9.40;;;;;;;5.78;56.98;96786.53;4361510;32;20201;-62
2022/03/22 07:21:04;;;;;;;10.47;8.53;;;;;;;6.00;56.28;96785.00;4369136;32;20188;-62
2022/03/22 07:23:29;;;;;;;19.40;9.93;;;;;;;6.04;56.39;96787.97;4375326;32;20185;-62
2022/03/22 07:25:55;;;;;;;15.10;9.90;;;;;;;6.05;56.33;96787.75;4368676;32;20302;-62
2022/03/22 07:28:20;;;;;;;11.97;9.30;;;;;;;6.24;55.97;96785.78;4367723;32;20204;-63
2022/03/22 07:30:45;;;;;;;11.73;9.57;;;;;;;6.10;56.19;96794.97;4364652;32;20189;-62
2022/03/22 07:33:11;;;;;;;11.53;9.17;;;;;;;6.12;56.71;96790.28;4363153;32;20177;-62
2022/03/22 07:35:36;;;;;;;13.10;9.60;;;;;;;6.23;55.62;96788.69;4362993;32;20200;-61
2022/03/22 07:38:02;;;;;;;12.10;9.03;;;;;;;6.40;55.81;96794.88;4369142;32;20188;-62
2022/03/22 07:40:28;;;;;;;13.43;9.90;;;;;;;6.45;56.28;96800.22;4365388;32;20271;-62
2022/03/22 07:42:53;;;;;;;10.43;9.23;;;;;;;6.45;55.93;96806.31;4357442;32;20212;-63
2022/03/22 07:45:19;;;;;;;64.47;10.47;;;;;;;6.43;56.10;96805.75;4355117;32;20360;-44
2022/03/22 07:47:45;;;;;;;42.80;9.27;;;;;;;7.12;73.50;96803.22;4361674;32;20224;-43
2022/03/22 07:52:58;;;;;;;13.73;7.93;;;;;;;11.60;59.44;96784.78;4352262;32;20252;-42
2022/03/22 07:55:24;;;;;;;8.67;7.60;;;;;;;12.03;50.28;96793.38;4377474;32;20383;-44
2022/03/22 07:57:51;;;;;;;11.00;8.00;;;;;;;12.25;49.77;96785.94;4362340;32;20372;-43
2022/03/22 08:00:19;;;;;;;9.27;8.37;;;;;;;12.48;46.72;96784.53;4375622;32;20322;-43
2022/03/22 08:02:56;;;;;;;10.93;8.77;;;;;;;12.64;46.18;96788.00;4370380;32;20350;-43
2022/03/22 08:05:24;;;;;;;12.63;8.10;;;;;;;13.01;44.76;96785.75;4361390;32;20240;-44
2022/03/22 08:07:53;;;;;;;9.13;8.00;;;;;;;13.18;43.62;96787.31;4369863;32;20223;-43
2022/03/22 08:10:20;;;;;;;9.00;8.07;;;;;;;13.48;43.14;96789.03;4357300;32;20185;-45
2022/03/22 08:12:47;;;;;;;9.63;8.20;;;;;;;13.40;42.94;96798.41;4376899;32;20189;-44
2022/03/22 08:15:13;;;;;;;8.63;7.80;;;;;;;13.39;42.22;96794.16;4376626;32;20215;-42
2022/03/22 08:17:41;;;;;;;8.13;7.50;;;;;;;13.28;41.80;96793.41;4360319;32;20185;-43
2022/03/22 08:20:09;;;;;;;9.23;8.33;;;;;;;13.43;42.03;96789.06;4344952;32;20193;-43
2022/03/22 08:22:52;;;;;;;10.37;7.53;;;;;;;13.47;41.61;96792.78;4357543;32;20274;-43
2022/03/22 08:25:38;;;;;;;9.17;8.30;;;;;;;13.47;41.46;96790.13;4375884;32;20195;-44
2022/03/22 08:28:10;;;;;;;8.40;7.67;;;;;;;13.36;41.26;96795.47;4362517;32;20192;-42
2022/03/22 08:30:38;;;;;;;11.77;8.53;;;;;;;13.41;40.96;96787.47;4385399;32;20293;-45
2022/03/22 08:33:07;;;;;;;11.10;8.30;;;;;;;13.31;40.01;96792.84;4375094;32;20244;-43
2022/03/22 08:35:34;;;;;;;9.93;7.57;;;;;;;13.31;45.89;96792.84;4360418;32;20193;-43
2022/03/22 08:38:03;;;;;;;10.30;7.90;;;;;;;13.69;45.28;96782.53;4359672;32;20189;-43
2022/03/22 08:40:28;;;;;;;13.37;8.93;;;;;;;14.19;42.91;96784.00;4360915;32;20180;-43
2022/03/22 08:42:56;;;;;;;11.67;9.13;;;;;;;14.57;41.53;96789.56;4351257;32;20242;-43
2022/03/22 08:45:23;;;;;;;10.47;7.93;;;;;;;14.37;37.60;96787.84;4374098;32;20272;-42
2022/03/22 08:47:51;;;;;;;10.63;9.23;;;;;;;14.80;39.57;96783.44;4360304;32;20229;-63
2022/03/22 08:50:23;;;;;;;15.77;9.17;;;;;;;13.59;36.43;96787.91;4359552;32;20202;-64
2022/03/22 08:52:51;;;;;;;11.80;9.53;;;;;;;12.60;38.07;96795.72;4371353;32;20185;-63
2022/03/22 08:55:18;;;;;;;12.53;9.30;;;;;;;12.03;39.73;96793.38;4362857;32;20196;-63
2022/03/22 08:57:48;;;;;;;12.00;9.00;;;;;;;10.97;41.52;96794.69;4370266;32;20235;-63
2022/03/22 09:00:17;;;;;;;10.37;9.20;;;;;;;10.76;42.30;96789.53;4361296;32;20230;-62
2022/03/22 09:02:47;;;;;;;10.40;8.70;;;;;;;10.51;43.15;96787.53;4361993;32;20195;-62
2022/03/22 09:08:01;;;;;;;10.03;8.33;;;;;;;10.18;43.52;96786.75;4375895;32;20246;-63
2022/03/22 09:10:29;;;;;;;12.33;9.03;;;;;;;10.13;43.68;96788.56;4363134;32;20185;-62
2022/03/22 09:12:57;;;;;;;11.57;9.47;;;;;;;10.20;43.40;96781.22;4365440;32;20283;-63
2022/03/22 09:15:26;;;;;;;9.70;8.40;;;;;;;9.99;43.94;96782.88;4376403;32;20269;-62
2022/03/22 09:17:53;;;;;;;12.10;8.70;;;;;;;9.79;43.87;96774.75;4375673;32;20360;-62
2022/03/22 09:20:20;;;;;;;10.63;8.60;;;;;;;9.92;44.04;96774.34;4360246;32;20268;-63
2022/03/22 09:22:49;;;;;;;12.70;8.73;;;;;;;10.09;43.52;96780.31;4372870;32;20356;-63
2022/03/22 09:25:16;;;;;;;11.30;8.77;;;;;;;10.11;43.34;96774.75;4365962;32;20305;-62
2022/03/22 09:27:44;;;;;;;11.27;8.93;;;;;;;10.20;43.44;96775.91;4371273;32;20295;-62
2022/03/22 09:30:11;;;;;;;11.23;8.37;;;;;;;10.24;43.24;96772.50;4374920;32;20281;-62
2022/03/22 09:32:40;;;;;;;11.83;7.80;;;;;;;10.37;43.42;96775.78;4364647;32;20300;-62
2022/03/22 09:35:10;;;;;;;13.10;10.43;;;;;;;10.56;45.24;96769.78;4362607;32;20330;-62
2022/03/22 09:37:37;;;;;;;10.93;9.43;;;;;;;10.67;43.09;96771.44;4390322;32;20311;-63
2022/03/22 09:40:05;;;;;;;11.13;8.87;;;;;;;10.67;42.34;96765.31;4369701;32;20282;-63
2022/03/22 09:42:31;;;;;;;12.20;8.53;;;;;;;10.72;41.94;96773.31;4376813;32;20367;-63
2022/03/22 09:45:02;;;;;;;13.70;9.37;;;;;;;10.68;41.79;96770.37;4389615;32;20184;-63
2022/03/22 09:47:29;;;;;;;10.67;7.93;;;;;;;10.83;42.17;96768.84;4364805;32;20287;-63
2022/03/22 09:49:56;;;;;;;11.53;8.57;;;;;;;10.78;42.19;96761.69;4375812;32;20302;-63
2022/03/22 09:52:23;;;;;;;15.13;8.60;;;;;;;10.88;42.88;96756.41;4387048;32;20371;-63
2022/03/22 09:54:50;;;;;;;12.50;9.10;;;;;;;11.11;40.80;96754.37;4391306;32;20292;-63
2022/03/22 09:57:16;;;;;;;10.67;8.17;;;;;;;11.09;40.63;96759.13;4370096;32;20277;-63
2022/03/22 09:59:43;;;;;;;9.77;8.77;;;;;;;11.12;40.34;96754.09;4358987;32;20304;-63
2022/03/22 10:02:10;;;;;;;14.10;8.37;;;;;;;11.05;40.60;96750.09;4371883;32;20197;-63
2022/03/22 10:04:44;;;;;;;14.60;9.60;;;;;;;10.95;41.04;96759.63;4369132;32;20284;-63
2022/03/22 10:07:21;;;;;;;9.40;8.50;;;;;;;11.10;40.58;96752.75;4385691;32;20352;-63
2022/03/22 10:10:06;;;;;;;12.97;9.03;;;;;;;11.16;40.53;96757.03;4375335;32;20298;-63
2022/03/22 10:12:36;;;;;;;13.67;9.17;;;;;;;11.25;40.67;96758.12;4361726;32;20181;-63
2022/03/22 10:15:09;;;;;;;11.07;8.23;;;;;;;11.35;40.66;96755.50;4374761;32;20289;-63
2022/03/22 10:17:35;;;;;;;9.77;8.70;;;;;;;11.55;40.18;96755.53;4376246;32;20242;-63
2022/03/22 10:20:00;;;;;;;17.43;8.97;;;;;;;11.43;40.36;96760.28;4363164;32;20387;-61
2022/03/22 10:22:27;;;;;;;9.57;7.97;;;;;;;11.51;39.78;96748.34;4376069;32;20218;-64
2022/03/22 10:24:57;;;;;;;16.53;11.67;;;;;;;11.47;39.81;96756.03;4389465;32;20196;-63
2022/03/22 10:27:30;;;;;;;9.90;9.00;;;;;;;11.58;39.89;96748.91;4368290;32;20365;-62
2022/03/22 10:29:57;;;;;;;14.63;10.90;;;;;;;11.57;39.35;96752.63;4385295;32;20363;-62
2022/03/22 10:32:32;;;;;;;12.07;8.00;;;;;;;11.63;39.36;96752.38;4378087;32;20177;-63
2022/03/22 10:35:08;;;;;;;9.73;8.30;;;;;;;11.57;38.81;96742.00;4369510;32;20203;-63
2022/03/22 10:37:33;;;;;;;9.47;8.53;;;;;;;11.61;38.30;96748.38;4373256;32;20325;-64
2022/03/22 10:39:59;;;;;;;9.07;8.23;;;;;;;11.75;38.53;96746.78;4377037;32;20188;-63
2022/03/22 10:42:24;;;;;;;11.77;8.80;;;;;;;11.92;37.99;96751.88;4376103;32;20192;-62
2022/03/22 10:44:50;;;;;;;9.50;8.60;;;;;;;11.67;39.13;96748.09;4381308;32;20204;-60
2022/03/22 10:47:25;;;;;;;11.70;7.50;;;;;;;11.80;38.66;96746.81;4375430;32;20248;-62
2022/03/22 10:50:07;;;;;;;8.40;7.60;;;;;;;11.81;38.19;96743.09;4365253;32;20293;-62
2022/03/22 10:52:33;;;;;;;9.00;8.07;;;;;;;11.86;37.36;96747.59;4374009;32;20184;-62
2022/03/22 10:54:59;;;;;;;12.90;8.27;;;;;;;11.99;36.95;96745.22;4376101;32;20185;-62
2022/03/22 10:57:32;;;;;;;8.60;7.70;;;;;;;12.15;37.29;96743.34;4372196;32;20180;-63
2022/03/22 11:00:04;;;;;;;10.23;8.17;;;;;;;12.05;37.65;96736.16;4376834;32;20169;-60
2022/03/22 11:02:33;;;;;;;8.20;7.37;;;;;;;12.14;36.87;96739.09;4377546;32;20219;-61
2022/03/22 11:05:03;;;;;;;8.93;8.03;;;;;;;12.27;36.49;96735.88;4356268;32;20204;-61
2022/03/22 11:07:33;;;;;;;9.30;8.30;;;;;;;12.28;36.87;96728.69;4377821;32;20185;-60
2022/03/22 11:09:59;;;;;;;10.63;8.43;;;;;;;12.29;37.32;96727.62;4373221;32;20288;-61
2022/03/22 11:12:27;;;;;;;8.83;8.03;;;;;;;12.29;37.77;96733.75;4370389;32;20192;-60
2022/03/22 11:14:57;;;;;;;8.93;8.10;;;;;;;12.36;37.09;96728.94;4371674;32;20176;-60
2022/03/22 11:17:25;;;;;;;8.80;7.90;;;;;;;12.47;36.40;96726.28;4379508;32;20186;-62
2022/03/22 11:19:51;;;;;;;10.80;8.17;;;;;;;12.49;36.62;96727.59;4362940;32;22197;-61
2022/03/22 11:22:18;;;;;;;9.27;8.27;;;;;;;12.34;36.45;96725.75;4364203;32;20208;-61
2022/03/22 11:24:45;;;;;;;9.47;8.43;;;;;;;12.51;36.31;96722.00;4345321;32;20280;-62
2022/03/22 11:27:14;;;;;;;11.90;8.10;;;;;;;12.55;36.61;96709.75;4353493;32;20242;-63
2022/03/22 11:29:45;;;;;;;10.50;8.07;;;;;;;12.61;36.48;96711.31;4348494;32;20320;-63
2022/03/22 11:34:58;;;;;;;11.60;8.33;;;;;;;12.85;36.06;96704.31;4341618;32;20263;-62
2022/03/22 11:37:34;;;;;;;12.20;8.17;;;;;;;12.94;35.90;96702.66;4317970;32;20268;-62
2022/03/22 11:42:57;;;;;;;11.07;8.33;;;;;;;12.89;34.92;96710.66;4370836;32;20273;-61
2022/03/22 11:45:27;;;;;;;8.80;7.70;;;;;;;12.89;35.03;96705.34;4324371;32;20203;-62
2022/03/22 11:47:54;;;;;;;12.00;9.60;;;;;;;13.00;36.50;96698.91;4308016;32;20210;-62
2022/03/22 11:50:25;;;;;;;12.13;9.20;;;;;;;12.99;35.52;96694.66;4312162;32;20265;-62
2022/03/22 11:52:57;;;;;;;8.10;7.47;;;;;;;13.13;34.38;96694.03;4344329;32;20211;-62
2022/03/22 11:55:27;;;;;;;8.40;7.60;;;;;;;13.19;33.86;96692.97;4335900;32;20317;-63
2022/03/22 11:58:14;;;;;;;9.37;7.47;;;;;;;13.11;33.63;96691.66;4347624;32;20250;-62
2022/03/22 12:00:55;;;;;;;8.03;7.10;;;;;;;13.19;33.35;96688.44;4372625;32;20294;-60
2022/03/22 12:03:23;;;;;;;7.80;7.07;;;;;;;13.18;33.02;96686.06;4360810;32;20188;-62
2022/03/22 12:05:49;;;;;;;8.33;7.53;;;;;;;13.12;33.11;96690.56;4373405;32;20177;-62
2022/03/22 12:08:16;;;;;;;9.57;7.67;;;;;;;13.21;33.19;96680.16;4374885;32;20252;-62
2022/03/22 12:10:49;;;;;;;8.33;7.63;;;;;;;13.25;33.37;96687.34;4377734;32;20189;-60